createdAt,value
2022-08-11T00:01:10.519Z,3.00
2022-08-11T00:03:43.507Z,3.30
2022-08-11T00:06:16.840Z,2.88
2022-08-11T00:08:46.528Z,2.90
2022-08-11T00:11:17.241Z,2.83
2022-08-11T00:13:48.086Z,3.17
2022-08-11T00:18:48.395Z,2.80
2022-08-11T00:21:20.826Z,2.85
2022-08-11T00:24:10.665Z,2.80
2022-08-11T00:26:40.106Z,2.83
2022-08-11T00:29:12.703Z,3.20
2022-08-11T00:31:42.359Z,3.03
2022-08-11T00:34:13.743Z,2.88
2022-08-11T00:36:47.860Z,2.92
2022-08-11T00:39:17.423Z,3.10
2022-08-11T00:41:48.352Z,3.10
2022-08-11T00:44:41.173Z,3.03
2022-08-11T00:47:24.948Z,3.10
2022-08-11T00:50:07.824Z,2.95
2022-08-11T00:53:02.024Z,3.30
2022-08-11T00:55:59.273Z,3.17
2022-08-11T00:58:53.478Z,3.28
2022-08-11T01:01:31.624Z,3.00
2022-08-11T01:04:33.842Z,3.17
2022-08-11T01:08:01.806Z,2.83
2022-08-11T01:10:41.117Z,3.10
2022-08-11T01:13:12.497Z,3.13
2022-08-11T01:16:14.649Z,3.10
2022-08-11T01:19:15.373Z,3.00
2022-08-11T01:22:17.536Z,3.42
2022-08-11T01:25:25.806Z,3.25
2022-08-11T01:28:25.366Z,3.22
2022-08-11T01:31:29.332Z,3.30
2022-08-11T01:34:21.226Z,3.47
2022-08-11T01:37:01.922Z,3.22
2022-08-11T01:39:50.689Z,3.13
2022-08-11T01:42:57.056Z,3.08
2022-08-11T01:45:32.043Z,3.00
2022-08-11T01:48:06.608Z,2.95
2022-08-11T01:50:42.929Z,3.10
2022-08-11T01:53:21.127Z,2.92
2022-08-11T01:55:55.198Z,3.10
2022-08-11T01:58:43.622Z,3.20
2022-08-11T02:01:19.530Z,3.20
2022-08-11T02:03:52.541Z,3.30
2022-08-11T02:06:37.553Z,3.03
2022-08-11T02:09:12.877Z,3.05
2022-08-11T02:11:41.125Z,2.92
2022-08-11T02:14:30.698Z,3.20
2022-08-11T02:17:12.928Z,3.08
2022-08-11T02:20:00.272Z,3.25
2022-08-11T02:22:58.548Z,3.22
2022-08-11T02:25:34.178Z,3.10
2022-08-11T02:28:05.919Z,3.00
2022-08-11T02:30:37.917Z,3.13
2022-08-11T02:33:30.572Z,3.13
2022-08-11T02:36:03.953Z,3.17
2022-08-11T02:38:35.733Z,3.13
2022-08-11T02:41:32.136Z,3.33
2022-08-11T02:44:13.516Z,3.20
2022-08-11T02:46:51.174Z,2.90
2022-08-11T02:49:40.421Z,3.50
2022-08-11T02:52:11.806Z,3.22
2022-08-11T02:54:44.927Z,3.33
2022-08-11T02:57:20.748Z,3.03
2022-08-11T02:59:55.478Z,3.40
2022-08-11T03:02:38.524Z,3.25
2022-08-11T03:05:17.174Z,3.55
2022-08-11T03:07:54.167Z,3.38
2022-08-11T03:10:24.992Z,3.22
2022-08-11T03:13:15.641Z,3.20
2022-08-11T03:16:00.725Z,3.42
2022-08-11T03:18:32.405Z,3.40
2022-08-11T03:21:08.872Z,3.10
2022-08-11T03:23:40.487Z,3.40
2022-08-11T03:26:13.014Z,3.05
2022-08-11T03:28:47.454Z,3.40
2022-08-11T03:31:24.870Z,3.30
2022-08-11T03:34:07.995Z,3.47
2022-08-11T03:37:17.865Z,3.13
2022-08-11T03:39:56.279Z,3.40
2022-08-11T03:42:28.278Z,3.25
2022-08-11T03:45:19.948Z,3.30
2022-08-11T03:48:05.269Z,3.40
2022-08-11T03:51:01.098Z,3.30
2022-08-11T03:54:00.193Z,3.38
2022-08-11T03:57:11.309Z,3.35
2022-08-11T04:00:10.265Z,3.70
2022-08-11T04:03:10.585Z,3.05
2022-08-11T04:06:07.374Z,3.53
2022-08-11T04:09:03.079Z,3.47
2022-08-11T04:11:47.300Z,3.33
2022-08-11T04:15:04.765Z,3.33
2022-08-11T04:18:03.013Z,3.33
2022-08-11T04:20:48.202Z,3.58
2022-08-11T04:24:35.833Z,3.80
2022-08-11T04:26:59.159Z,3.80
2022-08-11T04:30:03.450Z,3.30
2022-08-11T04:32:39.796Z,3.50
2022-08-11T04:35:31.116Z,3.38
2022-08-11T04:38:37.720Z,3.55
2022-08-11T04:41:23.061Z,3.25
2022-08-11T04:44:31.912Z,3.80
2022-08-11T04:48:03.542Z,3.75
2022-08-11T04:50:42.519Z,3.80
2022-08-11T04:53:58.353Z,3.42
2022-08-11T04:56:40.365Z,3.83
2022-08-11T04:59:43.498Z,3.50
2022-08-11T05:02:48.733Z,3.42
2022-08-11T05:05:35.776Z,3.30
2022-08-11T05:08:37.921Z,3.97
2022-08-11T05:11:38.812Z,3.70
2022-08-11T05:14:40.108Z,3.58
2022-08-11T05:20:06.057Z,3.58
2022-08-11T05:22:48.492Z,3.78
2022-08-11T05:26:45.171Z,3.70
2022-08-11T05:28:46.040Z,4.20
2022-08-11T05:31:29.074Z,3.40
2022-08-11T05:34:12.997Z,3.65
2022-08-11T05:36:46.385Z,3.53
2022-08-11T05:39:36.375Z,3.50
2022-08-11T05:42:29.604Z,3.58
2022-08-11T05:45:19.456Z,3.90
2022-08-11T05:48:04.093Z,3.40
2022-08-11T05:50:46.191Z,3.90
2022-08-11T05:53:29.495Z,3.45
2022-08-11T05:56:21.167Z,3.72
2022-08-11T05:58:53.118Z,3.38
2022-08-11T06:01:31.110Z,3.20
2022-08-11T06:04:17.314Z,3.30
2022-08-11T06:06:55.631Z,3.33
2022-08-11T06:09:31.579Z,3.47
2022-08-11T06:12:02.848Z,3.30
2022-08-11T06:14:32.553Z,3.60
2022-08-11T06:17:09.048Z,3.50
2022-08-11T06:19:39.308Z,3.20
2022-08-11T06:22:10.669Z,3.67
2022-08-11T06:24:41.114Z,3.42
2022-08-11T06:27:13.376Z,3.88
2022-08-11T06:29:54.762Z,3.17
2022-08-11T06:32:29.765Z,3.03
2022-08-11T06:35:06.117Z,3.30
2022-08-11T06:37:48.584Z,3.13
2022-08-11T06:40:27.416Z,3.20
2022-08-11T06:43:02.243Z,2.95
2022-08-11T06:45:35.246Z,3.10
2022-08-11T06:48:10.253Z,3.03
2022-08-11T06:50:52.207Z,3.00
2022-08-11T06:53:22.569Z,3.25
2022-08-11T06:56:04.367Z,2.95
2022-08-11T06:58:47.130Z,3.28
2022-08-11T07:01:18.460Z,3.05
2022-08-11T07:03:51.505Z,3.13
2022-08-11T07:06:50.149Z,3.30
2022-08-11T07:09:46.428Z,2.90
2022-08-11T07:12:55.723Z,3.00
2022-08-11T07:16:10.469Z,3.17
2022-08-11T07:18:41.198Z,2.90
2022-08-11T07:22:01.631Z,3.00
2022-08-11T07:24:58.704Z,2.75
2022-08-11T07:27:37.476Z,3.00
2022-08-11T07:30:10.170Z,3.08
2022-08-11T07:32:42.254Z,3.00
2022-08-11T07:35:13.765Z,2.97
2022-08-11T07:37:48.009Z,2.97
2022-08-11T07:40:18.150Z,2.80
2022-08-11T07:42:48.241Z,2.80
2022-08-11T07:45:30.219Z,2.95
2022-08-11T07:48:12.204Z,2.90
2022-08-11T07:50:56.303Z,2.78
2022-08-11T07:53:28.397Z,2.90
2022-08-11T07:55:58.182Z,2.90
2022-08-11T07:58:45.462Z,2.60
2022-08-11T08:01:35.304Z,2.80
2022-08-11T08:04:17.305Z,2.50
2022-08-11T08:06:59.282Z,2.72
2022-08-11T08:09:43.840Z,2.90
2022-08-11T08:12:25.780Z,2.90
2022-08-11T08:15:08.241Z,2.92
2022-08-11T08:18:09.905Z,2.75
2022-08-11T08:20:49.932Z,2.55
2022-08-11T08:23:33.310Z,2.42
2022-08-11T08:26:27.127Z,2.70
2022-08-11T08:29:16.619Z,2.65
2022-08-11T08:31:43.525Z,3.08
2022-08-11T08:34:12.996Z,2.40
2022-08-11T08:36:43.015Z,2.30
2022-08-11T08:39:12.591Z,2.42
2022-08-11T08:41:45.331Z,2.50
2022-08-11T08:44:37.219Z,2.60
2022-08-11T08:47:05.385Z,2.53
2022-08-11T08:49:40.376Z,2.65
2022-08-11T08:52:26.257Z,2.53
2022-08-11T08:55:05.521Z,2.50
2022-08-11T08:57:39.370Z,2.60
2022-08-11T09:00:13.914Z,2.50
2022-08-11T09:02:47.116Z,2.70
2022-08-11T09:05:17.613Z,2.50
2022-08-11T09:07:47.546Z,2.67
2022-08-11T09:10:17.355Z,2.80
2022-08-11T09:12:49.718Z,2.83
2022-08-11T09:15:19.635Z,2.60
2022-08-11T09:17:50.535Z,2.65
2022-08-11T09:20:23.923Z,2.50
2022-08-11T09:24:06.369Z,2.63
2022-08-11T09:26:12.790Z,2.50
2022-08-11T09:28:45.009Z,2.50
2022-08-11T09:31:14.889Z,2.45
2022-08-11T09:33:45.376Z,2.70
2022-08-11T09:36:27.834Z,2.42
2022-08-11T09:39:09.979Z,2.30
2022-08-11T09:42:01.550Z,2.63
2022-08-11T09:44:44.884Z,2.53
2022-08-11T09:47:15.586Z,2.60
2022-08-11T09:49:45.439Z,2.30
2022-08-11T09:52:14.938Z,2.50
2022-08-11T09:54:47.932Z,2.63
2022-08-11T09:57:30.363Z,2.60
2022-08-11T10:00:09.479Z,2.50
2022-08-11T10:02:44.442Z,2.70
2022-08-11T10:05:26.729Z,2.38
2022-08-11T10:07:56.212Z,2.40
2022-08-11T10:10:25.708Z,2.38
2022-08-11T10:12:59.840Z,2.47
2022-08-11T10:15:35.301Z,2.28
2022-08-11T10:18:19.398Z,2.40
2022-08-11T10:20:50.331Z,2.00
2022-08-11T10:23:32.312Z,2.10
2022-08-11T10:26:14.278Z,2.30
2022-08-11T10:29:09.651Z,2.10
2022-08-11T10:31:57.757Z,2.00
2022-08-11T10:34:29.442Z,2.08
2022-08-11T10:37:03.136Z,2.17
2022-08-11T10:39:32.746Z,2.25
2022-08-11T10:42:29.976Z,2.40
2022-08-11T10:45:04.382Z,2.30
2022-08-11T10:47:36.695Z,2.08
2022-08-11T10:50:19.843Z,2.13
2022-08-11T10:53:03.369Z,2.40
2022-08-11T10:55:45.360Z,2.22
2022-08-11T10:58:27.542Z,2.28
2022-08-11T11:00:59.462Z,2.38
2022-08-11T11:03:34.606Z,2.30
2022-08-11T11:06:12.646Z,2.08
2022-08-11T11:09:04.145Z,2.00
2022-08-11T11:11:50.566Z,2.45
2022-08-11T11:14:34.911Z,2.30
2022-08-11T11:17:17.721Z,2.30
2022-08-11T11:19:49.750Z,2.30
2022-08-11T11:22:31.727Z,1.88
2022-08-11T11:25:05.468Z,2.30
2022-08-11T11:27:35.653Z,2.42
2022-08-11T11:30:17.161Z,2.05
2022-08-11T11:35:29.276Z,2.42
2022-08-11T11:38:04.908Z,2.50
2022-08-11T11:40:35.151Z,2.30
2022-08-11T11:43:05.230Z,2.63
2022-08-11T11:45:34.967Z,2.70
2022-08-11T11:48:04.800Z,2.50
2022-08-11T11:50:38.215Z,2.67
2022-08-11T11:53:08.633Z,2.50
2022-08-11T11:55:38.237Z,2.47
2022-08-11T11:58:20.253Z,3.77
2022-08-11T12:01:04.168Z,2.40
2022-08-11T12:03:33.718Z,2.30
2022-08-11T12:06:05.868Z,2.58
2022-08-11T12:08:35.696Z,2.30
2022-08-11T12:11:18.651Z,2.35
2022-08-11T12:13:50.279Z,2.55
2022-08-11T12:16:33.192Z,2.40
2022-08-11T12:19:06.467Z,2.42
2022-08-11T12:24:20.972Z,2.40
2022-08-11T12:27:16.330Z,2.60
2022-08-11T12:29:51.577Z,2.40
2022-08-11T12:32:25.269Z,2.40
2022-08-11T12:34:57.262Z,2.38
2022-08-11T12:37:32.369Z,2.40
2022-08-11T12:40:43.427Z,2.50
2022-08-11T12:43:21.204Z,2.53
2022-08-11T12:45:51.980Z,2.50
2022-08-11T12:48:57.873Z,2.37
2022-08-11T12:52:12.225Z,2.58
2022-08-11T12:54:31.879Z,2.42
2022-08-11T12:57:15.565Z,2.47
2022-08-11T13:00:05.961Z,2.30
2022-08-11T13:02:47.963Z,2.50
2022-08-11T13:05:17.709Z,2.40
2022-08-11T13:07:47.899Z,2.40
2022-08-11T13:10:43.626Z,2.65
2022-08-11T13:13:52.705Z,2.28
2022-08-11T13:15:59.924Z,2.30
2022-08-11T13:18:29.438Z,2.45
2022-08-11T13:20:59.092Z,2.33
2022-08-11T13:23:29.659Z,2.83
2022-08-11T13:26:01.955Z,2.50
2022-08-11T13:28:31.477Z,2.50
2022-08-11T13:31:16.157Z,2.70
2022-08-11T13:33:46.465Z,2.60
2022-08-11T13:36:20.726Z,2.40
2022-08-11T13:38:50.263Z,2.75
2022-08-11T13:41:35.417Z,2.65
2022-08-11T13:44:04.880Z,2.78
2022-08-11T13:46:34.735Z,3.00
2022-08-11T13:49:04.587Z,2.53
2022-08-11T13:51:35.201Z,2.63
2022-08-11T13:54:06.326Z,2.55
2022-08-11T13:56:42.209Z,2.60
2022-08-11T13:59:11.694Z,2.40
2022-08-11T14:02:20.193Z,2.70
2022-08-11T14:04:36.176Z,2.90
2022-08-11T14:07:07.902Z,2.80
2022-08-11T14:09:39.543Z,2.80
2022-08-11T14:12:28.351Z,2.53
2022-08-11T14:15:05.816Z,2.75
2022-08-11T14:17:47.838Z,2.60
2022-08-11T14:20:38.110Z,2.63
2022-08-11T14:23:07.019Z,2.63
2022-08-11T14:25:59.697Z,3.03
2022-08-11T14:28:33.940Z,2.60
2022-08-11T14:31:05.489Z,2.45
2022-08-11T14:33:58.168Z,2.83
2022-08-11T14:36:25.800Z,2.95
2022-08-11T14:38:56.259Z,2.72
2022-08-11T14:44:57.689Z,2.70
2022-08-11T14:47:27.180Z,3.10
2022-08-11T14:50:05.003Z,3.03
2022-08-11T14:52:42.092Z,3.17
2022-08-11T14:55:24.608Z,2.85
2022-08-11T14:57:56.557Z,2.72
2022-08-11T15:00:29.074Z,2.90
2022-08-11T15:03:11.187Z,2.95
2022-08-11T15:05:52.375Z,2.92
2022-08-11T15:08:48.787Z,3.10
2022-08-11T15:11:32.089Z,2.92
2022-08-11T15:14:02.345Z,3.20
2022-08-11T15:16:46.902Z,2.90
2022-08-11T15:19:16.407Z,2.88
2022-08-11T15:21:58.359Z,3.00
2022-08-11T15:24:27.981Z,2.83
2022-08-11T15:27:13.005Z,2.97
2022-08-11T15:29:54.965Z,2.65
2022-08-11T15:32:45.330Z,3.20
2022-08-11T15:35:27.280Z,2.90
2022-08-11T15:38:08.366Z,3.10
2022-08-11T15:40:51.952Z,2.90
2022-08-11T15:43:37.004Z,2.97
2022-08-11T15:46:11.186Z,2.70
2022-08-11T15:48:46.305Z,3.00
2022-08-11T15:51:25.160Z,2.80
2022-08-11T15:53:57.031Z,2.63
2022-08-11T15:56:27.463Z,2.78
2022-08-11T15:59:10.542Z,2.90
2022-08-11T16:02:11.793Z,2.80
2022-08-11T16:04:48.553Z,2.90
2022-08-11T16:07:18.785Z,3.05
2022-08-11T16:09:55.000Z,2.70
2022-08-11T16:12:31.132Z,2.63
2022-08-11T16:15:20.291Z,2.53
2022-08-11T16:17:56.042Z,2.88
2022-08-11T16:20:30.137Z,2.80
2022-08-11T16:23:02.540Z,2.95
2022-08-11T16:27:01.681Z,2.67
2022-08-11T16:28:22.166Z,2.70
2022-08-11T16:30:51.667Z,2.83
2022-08-11T16:33:48.361Z,2.55
2022-08-11T16:36:25.909Z,2.60
2022-08-11T16:38:55.634Z,2.90
2022-08-11T16:41:40.784Z,2.92
2022-08-11T16:44:36.864Z,2.53
2022-08-11T16:47:07.467Z,3.00
2022-08-11T16:49:37.832Z,2.67
2022-08-11T16:54:44.573Z,2.60
2022-08-11T16:57:29.704Z,2.92
2022-08-11T16:59:59.565Z,2.70
2022-08-11T17:02:43.899Z,2.90
2022-08-11T17:05:26.788Z,2.78
2022-08-11T17:08:11.616Z,2.83
2022-08-11T17:10:57.754Z,2.65
2022-08-11T17:13:34.399Z,2.60
2022-08-11T17:16:12.819Z,2.75
2022-08-11T17:18:47.148Z,2.75
2022-08-11T17:21:21.861Z,2.40
2022-08-11T17:23:55.103Z,2.63
2022-08-11T17:26:27.338Z,2.90
2022-08-11T17:28:59.850Z,2.70
2022-08-11T17:31:41.797Z,2.75
2022-08-11T17:34:23.779Z,2.60
2022-08-11T17:36:53.354Z,2.90
2022-08-11T17:39:29.226Z,3.07
2022-08-11T17:42:11.361Z,3.08
2022-08-11T17:44:53.406Z,2.70
2022-08-11T17:47:35.424Z,2.47
2022-08-11T17:50:14.667Z,2.85
2022-08-11T17:52:59.499Z,2.50
2022-08-11T17:55:51.734Z,2.38
2022-08-11T17:58:35.298Z,2.67
2022-08-11T18:01:08.831Z,2.70
2022-08-11T18:03:39.577Z,2.70
2022-08-11T18:06:12.943Z,2.65
2022-08-11T18:08:59.065Z,2.60
2022-08-11T18:12:10.544Z,2.72
2022-08-11T18:14:46.251Z,2.75
2022-08-11T18:17:28.208Z,2.80
2022-08-11T18:20:10.163Z,2.92
2022-08-11T18:22:53.599Z,2.90
2022-08-11T18:25:43.268Z,2.90
2022-08-11T18:28:30.939Z,3.20
2022-08-11T18:31:15.002Z,3.00
2022-08-11T18:34:07.844Z,2.72
2022-08-11T18:36:51.854Z,2.80
2022-08-11T18:39:33.869Z,3.08
2022-08-11T18:42:19.554Z,2.97
2022-08-11T18:45:15.476Z,2.60
2022-08-11T18:47:57.456Z,2.58
2022-08-11T18:50:40.179Z,2.97
2022-08-11T18:53:25.981Z,3.00
2022-08-11T18:56:07.929Z,2.88
2022-08-11T18:58:49.956Z,2.70
2022-08-11T19:01:34.508Z,2.85
2022-08-11T19:04:19.182Z,2.72
2022-08-11T19:07:01.488Z,2.75
2022-08-11T19:09:43.530Z,3.00
2022-08-11T19:12:25.503Z,2.72
2022-08-11T19:15:07.602Z,3.00
2022-08-11T19:17:54.132Z,2.88
2022-08-11T19:20:37.682Z,2.70
2022-08-11T19:23:20.767Z,3.10
2022-08-11T19:26:02.721Z,2.70
2022-08-11T19:28:44.759Z,2.70
2022-08-11T19:31:26.731Z,3.17
2022-08-11T19:34:11.317Z,3.00
2022-08-11T19:36:53.272Z,2.95
2022-08-11T19:39:35.532Z,2.80
2022-08-11T19:42:17.540Z,2.78
2022-08-11T19:44:59.492Z,2.67
2022-08-11T19:47:41.444Z,3.00
2022-08-11T19:50:26.205Z,2.88
2022-08-11T19:53:17.195Z,2.83
2022-08-11T19:56:00.173Z,2.90
2022-08-11T19:58:42.148Z,2.90
2022-08-11T20:01:24.146Z,3.10
2022-08-11T20:04:06.122Z,3.00
2022-08-11T20:06:51.090Z,2.90
2022-08-11T20:10:04.931Z,2.92
2022-08-11T20:12:35.018Z,2.90
2022-08-11T20:15:17.048Z,2.83
2022-08-11T20:17:59.094Z,3.00
2022-08-11T20:20:41.397Z,2.97
2022-08-11T20:23:25.960Z,2.95
2022-08-11T20:26:29.788Z,3.10
2022-08-11T20:29:10.083Z,3.30
2022-08-11T20:31:52.041Z,2.85
2022-08-11T20:34:33.998Z,3.00
2022-08-11T20:37:15.965Z,3.22
2022-08-11T20:40:00.494Z,3.00
2022-08-11T20:42:42.674Z,3.00
2022-08-11T20:45:25.160Z,2.78
2022-08-11T20:48:07.625Z,2.72
2022-08-11T20:50:50.241Z,2.80
2022-08-11T20:53:35.971Z,2.80
2022-08-11T20:56:28.969Z,2.90
2022-08-11T20:59:17.386Z,2.75
2022-08-11T21:02:00.599Z,2.83
2022-08-11T21:04:54.502Z,2.83
2022-08-11T21:07:37.115Z,2.70
2022-08-11T21:10:23.308Z,2.90
2022-08-11T21:13:25.476Z,2.90
2022-08-11T21:16:09.286Z,2.78
2022-08-11T21:19:07.196Z,2.70
2022-08-11T21:21:50.169Z,2.60
2022-08-11T21:24:36.951Z,2.55
2022-08-11T21:27:24.748Z,2.42
2022-08-11T21:30:09.575Z,2.65
2022-08-11T21:32:51.528Z,2.65
2022-08-11T21:35:33.474Z,2.50
2022-08-11T21:38:17.287Z,2.58
2022-08-11T21:40:59.877Z,2.58
2022-08-11T21:43:41.860Z,2.95
2022-08-11T21:46:26.446Z,2.60
2022-08-11T21:49:13.790Z,2.40
2022-08-11T21:51:58.097Z,2.20
2022-08-11T21:54:40.311Z,2.50
2022-08-11T21:57:22.295Z,2.70
2022-08-11T22:00:06.690Z,2.53
2022-08-11T22:02:53.439Z,2.50
2022-08-11T22:05:35.825Z,2.33
2022-08-11T22:08:17.880Z,2.58
2022-08-11T22:10:59.821Z,2.38
2022-08-11T22:13:41.786Z,2.28
2022-08-11T22:16:43.737Z,2.22
2022-08-11T22:19:28.428Z,2.30
2022-08-11T22:22:10.385Z,2.60
2022-08-11T22:24:53.561Z,2.58
2022-08-11T22:27:35.537Z,2.60
2022-08-11T22:30:17.493Z,2.83
2022-08-11T22:32:59.496Z,2.80
2022-08-11T22:35:44.508Z,2.78
2022-08-11T22:38:26.448Z,3.00
2022-08-11T22:41:08.400Z,3.05
2022-08-11T22:43:50.390Z,2.72
2022-08-11T22:46:32.348Z,2.58
2022-08-11T22:49:14.316Z,2.78
2022-08-11T22:51:58.849Z,2.85
2022-08-11T22:54:40.790Z,2.53
2022-08-11T22:57:22.748Z,2.60
2022-08-11T23:00:04.689Z,2.90
2022-08-11T23:02:46.708Z,3.00
2022-08-11T23:05:29.356Z,3.00
2022-08-11T23:08:13.950Z,2.70
2022-08-11T23:10:55.899Z,2.60
2022-08-11T23:13:37.876Z,2.60
2022-08-11T23:16:20.142Z,2.70
2022-08-11T23:19:02.135Z,2.67
2022-08-11T23:21:44.419Z,2.63
2022-08-11T23:24:28.989Z,2.67
2022-08-11T23:27:11.089Z,2.63
2022-08-11T23:29:53.036Z,2.70
2022-08-11T23:32:35.646Z,2.85
2022-08-11T23:35:40.062Z,3.03
2022-08-11T23:38:19.567Z,2.88
2022-08-11T23:41:04.114Z,2.67
2022-08-11T23:43:46.111Z,2.90
2022-08-11T23:46:28.050Z,3.03
2022-08-11T23:49:12.140Z,2.50
2022-08-11T23:51:54.536Z,2.72
2022-08-11T23:54:37.575Z,2.78
2022-08-11T23:57:22.427Z,2.60
